Time;durP1;ratioP1;P1;durP2;ratioP2;P2;SDS_P1;SDS_P2;PMS_P1;PMS_P2;Temp;Humidity;BMP_temperature;BMP_pressure;BME280_temperature;BME280_humidity;BME280_pressure;Samples;Min_cycle;Max_cycle;Signal;HPM_P1;HPM_P2
2023/02/20 00:02:21;;;;;;;9.63;4.32;;;;;;;1.61;72.32;99128.41;4973685;28;20117;-82
2023/02/20 00:04:47;;;;;;;8.70;3.78;;;;;;;1.61;72.60;99117.59;4973773;28;20026;-82
2023/02/20 00:07:12;;;;;;;10.85;3.90;;;;;;;1.61;72.62;99118.44;4973670;28;20027;-82
2023/02/20 00:09:38;;;;;;;11.02;3.88;;;;;;;1.62;72.09;99113.84;4973282;28;20125;-84
2023/02/20 00:12:03;;;;;;;9.75;3.78;;;;;;;1.62;71.95;99105.72;4973284;28;20484;-80
2023/02/20 00:14:29;;;;;;;9.85;4.00;;;;;;;1.60;72.67;99102.41;4973028;28;20085;-83
2023/02/20 00:16:54;;;;;;;9.60;3.90;;;;;;;1.58;72.50;99102.66;4972636;28;20482;-82
2023/02/20 00:19:20;;;;;;;9.68;3.88;;;;;;;1.58;72.47;99099.94;4972632;28;20027;-81
2023/02/20 00:21:49;;;;;;;9.07;3.80;;;;;;;1.59;72.70;99108.88;4972676;28;20096;-81
2023/02/20 00:24:15;;;;;;;8.02;3.63;;;;;;;1.59;72.13;99112.41;4970031;28;20023;-82
2023/02/20 00:26:51;;;;;;;6.95;3.13;;;;;;;1.59;72.30;99125.94;4972500;28;20062;-82
2023/02/20 00:29:18;;;;;;;7.22;3.65;;;;;;;1.60;72.49;99126.75;4971297;28;20106;-81
2023/02/20 00:31:57;;;;;;;7.22;3.22;;;;;;;1.60;72.64;99122.19;4972439;28;20026;-80
2023/02/20 00:34:25;;;;;;;9.93;3.80;;;;;;;1.64;72.79;99126.06;4970270;28;20039;-81
2023/02/20 00:36:50;;;;;;;8.35;4.30;;;;;;;1.64;72.25;99123.38;4972175;28;20046;-82
2023/02/20 00:39:16;;;;;;;10.13;3.97;;;;;;;1.68;72.09;99114.81;4972432;28;20035;-81
2023/02/20 00:41:41;;;;;;;10.93;4.43;;;;;;;1.68;72.41;99117.53;4972503;28;20058;-82
2023/02/20 00:44:06;;;;;;;8.20;4.10;;;;;;;1.68;71.85;99122.94;4971464;28;20081;-81
2023/02/20 00:46:32;;;;;;;10.25;3.65;;;;;;;1.70;72.60;99118.13;4972081;28;20031;-81
2023/02/20 00:48:58;;;;;;;8.82;3.58;;;;;;;1.71;72.42;99127.88;4971820;28;20019;-81
2023/02/20 00:51:24;;;;;;;8.15;3.53;;;;;;;1.72;71.41;99116.03;4972790;28;20069;-82
2023/02/20 00:53:49;;;;;;;8.75;3.47;;;;;;;1.74;72.12;99117.47;4972294;28;20050;-82
2023/02/20 00:56:14;;;;;;;8.25;3.95;;;;;;;1.75;71.91;99112.88;4971952;28;20041;-81
2023/02/20 00:58:40;;;;;;;7.88;3.53;;;;;;;1.75;71.70;99121.84;4971660;28;20062;-82
2023/02/20 01:01:06;;;;;;;9.35;4.20;;;;;;;1.77;71.62;99118.91;4971685;28;20120;-81
2023/02/20 01:03:31;;;;;;;7.68;3.33;;;;;;;1.77;72.33;99121.59;4972057;28;20042;-82
2023/02/20 01:05:57;;;;;;;7.72;3.17;;;;;;;1.80;72.24;99123.88;4971957;28;20023;-82
2023/02/20 01:08:23;;;;;;;4.95;2.70;;;;;;;1.80;72.12;99126.56;4972403;28;20035;-82
2023/02/20 01:10:49;;;;;;;7.55;2.83;;;;;;;1.80;71.67;99125.75;4972690;28;20103;-82
2023/02/20 01:13:14;;;;;;;6.32;2.92;;;;;;;1.82;71.43;99127.19;4973950;28;20023;-82
2023/02/20 01:15:40;;;;;;;9.25;3.13;;;;;;;1.82;71.61;99123.66;4972864;28;20491;-83
2023/02/20 01:18:06;;;;;;;4.82;2.70;;;;;;;1.81;71.72;99112.00;4972701;28;20490;-82
2023/02/20 01:20:31;;;;;;;7.30;3.47;;;;;;;1.80;71.68;99112.22;4971245;28;20491;-82
2023/02/20 01:22:57;;;;;;;8.55;2.95;;;;;;;1.78;72.21;99113.28;4972746;28;20495;-81
2023/02/20 01:25:22;;;;;;;8.23;2.78;;;;;;;1.76;71.65;99096.44;4973025;28;20027;-82
2023/02/20 01:27:48;;;;;;;8.15;3.58;;;;;;;1.77;71.74;99102.66;4972546;28;20502;-82
2023/02/20 01:30:13;;;;;;;6.55;2.65;;;;;;;1.78;71.47;99109.72;4972299;28;20034;-81
2023/02/20 01:32:39;;;;;;;7.72;2.88;;;;;;;1.77;71.61;99097.25;4972539;28;20110;-81
2023/02/20 01:35:05;;;;;;;6.32;3.05;;;;;;;1.76;71.32;99096.44;4972945;28;20105;-81
2023/02/20 01:37:31;;;;;;;5.95;2.58;;;;;;;1.77;71.89;99094.56;4972617;28;20122;-81
2023/02/20 01:39:57;;;;;;;6.60;2.83;;;;;;;1.77;71.69;99090.00;4972239;28;20117;-81
2023/02/20 01:42:24;;;;;;;6.55;2.63;;;;;;;1.81;71.97;99084.94;4972549;28;20041;-81
2023/02/20 01:44:49;;;;;;;8.00;2.97;;;;;;;1.82;71.15;99077.69;4972216;28;20110;-81
2023/02/20 01:47:18;;;;;;;9.88;3.00;;;;;;;1.83;71.88;99087.44;4972194;28;20117;-82
2023/02/20 01:49:49;;;;;;;7.15;2.60;;;;;;;1.84;71.33;99070.97;4971966;28;20419;-81
2023/02/20 01:52:18;;;;;;;7.82;2.92;;;;;;;1.86;71.81;99078.84;4972359;28;20054;-80
2023/02/20 01:54:51;;;;;;;9.02;3.60;;;;;;;1.88;71.50;99071.34;4973497;28;20061;-82
2023/02/20 01:57:22;;;;;;;19.88;6.82;;;;;;;1.88;71.65;99066.78;4972591;28;20034;-81
2023/02/20 01:59:50;;;;;;;30.48;11.63;;;;;;;1.88;71.07;99057.81;4972034;28;20026;-81
2023/02/20 02:02:16;;;;;;;27.30;10.50;;;;;;;1.88;71.42;99055.13;4971897;28;20026;-81
2023/02/20 02:04:44;;;;;;;14.23;4.78;;;;;;;1.87;70.97;99039.94;4972080;28;20035;-81
2023/02/20 02:07:10;;;;;;;9.68;4.13;;;;;;;1.86;71.02;99024.75;4971823;28;20030;-82
2023/02/20 02:09:42;;;;;;;12.32;4.00;;;;;;;1.87;71.01;99031.81;4971083;28;20125;-82
2023/02/20 02:12:07;;;;;;;9.13;3.95;;;;;;;1.88;71.56;99023.50;4972057;28;20109;-82
2023/02/20 02:14:33;;;;;;;14.32;4.47;;;;;;;1.88;71.22;99025.34;4971892;28;20063;-79
2023/02/20 02:17:28;;;;;;;64.07;19.15;;;;;;;1.86;71.01;99024.75;4971674;28;20395;-79
2023/02/20 02:19:54;;;;;;;94.53;28.92;;;;;;;1.85;71.62;99033.91;4971756;28;20517;-80
2023/02/20 02:22:50;;;;;;;60.72;20.40;;;;;;;1.86;70.95;99024.75;4972269;28;20042;-80
2023/02/20 02:25:24;;;;;;;29.77;13.18;;;;;;;1.86;71.38;99019.34;4971770;28;20423;-80
2023/02/20 02:28:08;;;;;;;16.90;7.38;;;;;;;1.83;71.15;99011.72;4970108;28;20110;-80
2023/02/20 02:30:54;;;;;;;15.55;6.15;;;;;;;1.80;70.70;99012.97;4971601;28;20069;-81
2023/02/20 02:33:44;;;;;;;8.13;3.67;;;;;;;1.78;71.32;99002.41;4972405;28;20125;-80
2023/02/20 02:36:26;;;;;;;10.57;4.30;;;;;;;1.81;71.38;99005.69;4971980;28;20499;-80
2023/02/20 02:39:13;;;;;;;12.10;4.47;;;;;;;1.83;71.39;99006.31;4971938;28;20392;-80
2023/02/20 02:41:51;;;;;;;12.27;4.22;;;;;;;1.82;70.75;99001.94;4972081;28;20038;-80
2023/02/20 02:44:41;;;;;;;11.15;4.03;;;;;;;1.79;70.74;99000.50;4971611;28;20730;-80
2023/02/20 02:47:23;;;;;;;9.45;3.10;;;;;;;1.81;70.80;99000.28;4971664;28;20026;-80
2023/02/20 02:49:58;;;;;;;8.77;3.30;;;;;;;1.82;71.32;98994.66;4971850;28;20073;-80
2023/02/20 02:52:37;;;;;;;6.43;3.15;;;;;;;1.86;70.66;99001.25;4969024;28;20046;-80
2023/02/20 02:55:08;;;;;;;10.13;3.17;;;;;;;1.87;70.17;98991.25;4970918;28;20531;-80
2023/02/20 02:57:33;;;;;;;6.35;2.45;;;;;;;1.86;70.86;98995.84;4971581;28;20067;-81
2023/02/20 03:00:10;;;;;;;7.55;3.17;;;;;;;1.86;70.46;98995.84;4971441;28;20105;-81
2023/02/20 03:02:46;;;;;;;8.07;2.97;;;;;;;1.90;70.32;99001.63;4971763;28;20109;-80
2023/02/20 03:05:14;;;;;;;5.70;2.47;;;;;;;1.90;70.27;98999.75;4971403;28;20026;-80
2023/02/20 03:07:44;;;;;;;8.27;3.03;;;;;;;1.93;70.47;98998.47;4971826;28;20107;-80
2023/02/20 03:10:19;;;;;;;5.18;2.70;;;;;;;1.93;70.25;98993.91;4971321;28;20381;-81
2023/02/20 03:12:49;;;;;;;8.05;3.47;;;;;;;1.93;70.30;98987.66;4972060;28;20531;-81
2023/02/20 03:15:34;;;;;;;;;;;;;;;1.94;69.99;98986.59;4972086;28;20050;-80
2023/02/20 03:18:33;;;;;;;8.52;3.67;;;;;;;1.91;70.11;98985.19;4971490;28;19918;-81
2023/02/20 03:21:09;;;;;;;9.13;4.32;;;;;;;1.94;70.36;98986.59;4972690;28;20030;-81
2023/02/20 03:23:40;;;;;;;9.93;4.15;;;;;;;1.92;70.20;98981.41;4975562;28;20054;-81
2023/02/20 03:26:16;;;;;;;11.38;4.50;;;;;;;1.92;70.07;98975.16;4974821;28;20026;-81
2023/02/20 03:28:47;;;;;;;12.60;4.85;;;;;;;1.91;70.01;98963.53;4975334;28;20015;-79
2023/02/20 03:31:45;;;;;;;16.67;6.50;;;;;;;1.91;69.87;98954.59;4974771;28;20046;-80
2023/02/20 03:45:38;;;;;;;6.07;3.03;;;;;;;1.89;70.23;98951.28;4974934;28;20054;-81
2023/02/20 03:48:10;;;;;;;7.55;2.95;;;;;;;1.88;70.26;98963.16;4974633;28;20392;-81
2023/02/20 03:50:36;;;;;;;9.07;3.95;;;;;;;1.88;70.17;98964.00;4974619;28;20092;-81
2023/02/20 03:53:01;;;;;;;11.10;4.00;;;;;;;1.86;69.61;98976.91;4974331;28;20051;-80
2023/02/20 03:55:27;;;;;;;11.40;5.05;;;;;;;1.82;69.49;98972.19;4974491;28;20035;-80
2023/02/20 03:57:56;;;;;;;13.20;5.90;;;;;;;1.79;69.67;98973.44;4974298;28;20105;-80
2023/02/20 04:00:27;;;;;;;14.52;6.75;;;;;;;1.76;70.02;98982.84;4974347;28;20767;-80
2023/02/20 04:02:58;;;;;;;11.18;4.90;;;;;;;1.72;68.98;98989.78;4974541;28;20450;-80
2023/02/20 04:05:32;;;;;;;10.23;4.53;;;;;;;1.69;69.19;98990.22;4974488;28;20035;-80
2023/02/20 04:08:09;;;;;;;14.20;5.28;;;;;;;1.67;70.18;98975.25;4974048;28;20026;-81
2023/02/20 04:11:05;;;;;;;14.90;6.57;;;;;;;1.60;69.15;98967.22;4973713;28;20069;-80
2023/02/20 04:13:32;;;;;;;13.73;6.55;;;;;;;1.58;69.63;98958.50;4981606;28;20050;-80
2023/02/20 04:16:00;;;;;;;15.98;5.95;;;;;;;1.52;69.38;98951.28;4974047;28;20122;-80
2023/02/20 04:18:27;;;;;;;12.07;5.13;;;;;;;1.44;68.91;98952.44;4974029;28;20027;-80
2023/02/20 04:20:54;;;;;;;11.18;5.07;;;;;;;1.37;69.17;98946.25;4973653;28;20026;-81
2023/02/20 04:23:23;;;;;;;13.18;6.00;;;;;;;1.31;69.05;98948.00;4974247;28;20389;-81
2023/02/20 04:25:54;;;;;;;13.02;5.82;;;;;;;1.27;68.94;98944.06;4972369;28;20053;-82
2023/02/20 04:28:21;;;;;;;13.13;5.82;;;;;;;1.21;69.69;98953.91;4973693;28;20042;-82
2023/02/20 04:30:46;;;;;;;13.35;6.72;;;;;;;1.20;69.28;98949.56;4973666;28;20089;-82
2023/02/20 04:33:14;;;;;;;15.52;7.72;;;;;;;1.15;69.20;98961.00;4972515;28;20034;-81
2023/02/20 04:35:40;;;;;;;18.73;8.50;;;;;;;1.14;69.72;98953.97;4973790;28;20086;-82
2023/02/20 04:38:07;;;;;;;16.02;8.43;;;;;;;1.11;69.43;98953.59;4973574;28;20043;-81
2023/02/20 04:40:33;;;;;;;19.08;11.20;;;;;;;1.05;69.58;98939.06;4973505;28;20034;-81
2023/02/20 04:42:58;;;;;;;13.52;7.55;;;;;;;1.00;69.75;98945.16;4973292;28;20113;-81
2023/02/20 04:45:24;;;;;;;11.23;6.63;;;;;;;0.98;69.11;98941.03;4973561;28;20090;-81
2023/02/20 04:47:49;;;;;;;12.75;7.22;;;;;;;0.96;69.22;98938.53;4973251;28;20106;-81
2023/02/20 04:50:20;;;;;;;21.35;10.40;;;;;;;0.96;69.08;98925.03;4973210;28;20038;-81
2023/02/20 04:52:45;;;;;;;15.48;6.47;;;;;;;0.94;69.45;98927.13;4973234;28;20514;-80
2023/02/20 04:55:10;;;;;;;14.45;6.80;;;;;;;0.93;69.41;98924.66;4973451;28;20137;-81
2023/02/20 04:57:36;;;;;;;12.15;6.55;;;;;;;0.93;69.15;98925.47;4972803;28;20066;-80
2023/02/20 05:00:03;;;;;;;12.70;7.43;;;;;;;0.92;69.79;98926.53;4971589;28;20125;-81
2023/02/20 05:02:28;;;;;;;19.40;8.75;;;;;;;0.93;69.22;98925.47;4973136;28;20119;-81
2023/02/20 05:04:53;;;;;;;17.30;8.68;;;;;;;0.94;69.26;98927.13;4971583;28;20109;-81
2023/02/20 05:07:19;;;;;;;17.52;7.97;;;;;;;0.93;69.92;98921.97;4972778;28;20027;-81
2023/02/20 05:09:44;;;;;;;19.67;8.95;;;;;;;0.91;69.53;98908.66;4971665;28;20090;-81
2023/02/20 05:12:09;;;;;;;16.52;8.27;;;;;;;0.93;69.72;98903.06;4973173;28;20027;-82
2023/02/20 05:14:35;;;;;;;23.85;10.68;;;;;;;0.91;69.93;98895.16;4973312;28;20031;-81
2023/02/20 05:17:00;;;;;;;18.00;8.75;;;;;;;0.91;69.54;98894.34;4971115;28;20479;-81
2023/02/20 05:19:26;;;;;;;18.05;10.30;;;;;;;0.88;69.88;98892.91;4972728;28;20041;-81
2023/02/20 05:24:35;;;;;;;20.23;10.85;;;;;;;0.82;69.54;98910.81;4972915;28;20085;-81
2023/02/20 05:27:00;;;;;;;21.02;10.30;;;;;;;0.78;69.87;98915.00;4971019;28;20031;-81
2023/02/20 05:29:26;;;;;;;19.63;9.00;;;;;;;0.78;70.21;98919.59;4972555;28;20731;-81
2023/02/20 05:31:51;;;;;;;18.33;9.45;;;;;;;0.74;69.84;98927.31;4972924;28;20396;-81
2023/02/20 05:34:17;;;;;;;16.85;7.70;;;;;;;0.71;69.79;98920.47;4972765;28;20035;-81
2023/02/20 05:36:42;;;;;;;17.35;8.25;;;;;;;0.71;69.92;98930.44;4972105;28;20481;-81
2023/02/20 05:39:07;;;;;;;17.98;8.13;;;;;;;0.72;70.04;98924.84;4971910;28;20031;-81
2023/02/20 05:41:33;;;;;;;18.35;7.78;;;;;;;0.72;70.35;98921.28;4972774;28;20337;-82
2023/02/20 05:43:58;;;;;;;18.20;9.02;;;;;;;0.70;69.92;98923.38;4972469;28;20065;-81
2023/02/20 05:46:27;;;;;;;17.55;7.88;;;;;;;0.67;70.28;98915.72;4972562;28;20070;-81
2023/02/20 05:48:53;;;;;;;18.88;10.77;;;;;;;0.64;70.70;98910.75;4971951;28;20038;-80
2023/02/20 05:51:24;;;;;;;21.27;11.60;;;;;;;0.61;70.59;98908.53;4972022;28;20043;-81
2023/02/20 05:53:49;;;;;;;16.13;10.00;;;;;;;0.58;70.56;98904.38;4971871;28;20054;-81
2023/02/20 05:56:15;;;;;;;16.40;8.80;;;;;;;0.55;70.25;98908.34;4972019;28;20031;-81
2023/02/20 05:58:44;;;;;;;12.85;8.32;;;;;;;0.52;70.89;98905.25;4986939;28;20035;-80
2023/02/20 06:01:24;;;;;;;13.90;8.03;;;;;;;0.51;70.39;98912.53;4970299;28;20510;-81
2023/02/20 06:03:52;;;;;;;15.15;7.38;;;;;;;0.52;70.52;98905.25;4971966;28;20059;-81
2023/02/20 06:06:18;;;;;;;14.93;8.27;;;;;;;0.53;71.05;98904.22;4972041;28;20039;-81
2023/02/20 06:08:44;;;;;;;19.90;9.60;;;;;;;0.56;71.45;98911.88;4971914;28;20058;-81
2023/02/20 06:11:11;;;;;;;25.38;10.80;;;;;;;0.59;70.96;98916.81;4971718;28;20030;-81
2023/02/20 06:13:43;;;;;;;22.60;10.40;;;;;;;0.66;71.36;98930.25;4972273;28;20077;-80
2023/02/20 06:16:10;;;;;;;30.40;19.20;;;;;;;0.71;71.15;98930.44;4971992;28;20030;-81
2023/02/20 06:18:41;;;;;;;48.42;29.08;;;;;;;0.73;71.41;98907.59;4971786;28;20035;-82
2023/02/20 06:21:10;;;;;;;33.45;20.15;;;;;;;0.79;71.39;98910.47;4971652;28;20038;-81
2023/02/20 06:23:37;;;;;;;40.47;22.70;;;;;;;0.82;71.31;98908.13;4972150;28;20029;-81
2023/02/20 06:26:04;;;;;;;32.53;16.60;;;;;;;0.88;71.38;98903.69;4971833;28;20034;-79
2023/02/20 06:28:30;;;;;;;32.08;16.17;;;;;;;0.91;71.16;98907.84;4971753;28;20372;-81
2023/02/20 06:30:55;;;;;;;23.95;12.35;;;;;;;0.94;71.13;98916.31;4971563;28;20074;-80
2023/02/20 06:33:21;;;;;;;18.80;10.68;;;;;;;0.98;71.39;98922.13;4971908;28;20042;-81
2023/02/20 06:35:46;;;;;;;16.30;9.38;;;;;;;1.00;71.31;98928.94;4972015;28;20027;-81
2023/02/20 06:38:11;;;;;;;14.23;8.20;;;;;;;1.04;71.20;98932.00;4971454;28;20388;-81
2023/02/20 06:40:38;;;;;;;16.77;8.30;;;;;;;1.06;71.52;98931.81;4971739;28;20054;-80
2023/02/20 06:43:04;;;;;;;15.23;9.05;;;;;;;1.06;71.39;98929.09;4971972;28;20034;-80
2023/02/20 06:45:29;;;;;;;20.42;9.40;;;;;;;1.10;71.50;98928.44;4970603;28;20424;-80
2023/02/20 06:47:54;;;;;;;13.82;8.18;;;;;;;1.12;71.07;98929.03;4971245;28;20630;-81
2023/02/20 06:50:20;;;;;;;18.45;8.55;;;;;;;1.15;70.99;98925.88;4971560;28;20030;-81
2023/02/20 06:52:47;;;;;;;16.80;7.97;;;;;;;1.21;71.55;98920.66;4971664;28;20121;-81
2023/02/20 06:55:13;;;;;;;19.35;10.15;;;;;;;1.27;71.50;98915.16;4971953;28;20058;-81
2023/02/20 06:57:38;;;;;;;23.73;11.05;;;;;;;1.33;71.00;98913.47;4975261;28;20039;-80
2023/02/20 07:00:05;;;;;;;24.52;11.48;;;;;;;1.40;71.57;98900.69;4974872;28;20137;-82
2023/02/20 07:02:30;;;;;;;21.00;9.60;;;;;;;1.49;71.74;98910.13;4975061;28;20035;-83
2023/02/20 07:04:55;;;;;;;19.67;9.48;;;;;;;1.58;71.67;98909.84;4975638;28;20049;-81
2023/02/20 07:07:21;;;;;;;30.15;17.48;;;;;;;1.69;71.99;98910.97;4975328;28;20062;-82
2023/02/20 07:09:46;;;;;;;21.58;9.85;;;;;;;1.76;71.34;98907.13;4975071;28;20038;-81
2023/02/20 07:12:11;;;;;;;25.85;12.05;;;;;;;1.85;71.57;98906.81;4975383;28;20042;-82
2023/02/20 07:14:37;;;;;;;21.02;9.70;;;;;;;1.92;71.49;98918.38;4969410;28;20019;-81
2023/02/20 07:17:02;;;;;;;20.30;9.80;;;;;;;1.97;71.42;98918.50;4971776;28;20031;-82
2023/02/20 07:19:28;;;;;;;17.98;8.25;;;;;;;2.02;71.08;98912.44;4965536;28;20030;-82
2023/02/20 07:21:53;;;;;;;14.20;7.75;;;;;;;2.08;71.41;98911.50;4970683;28;20057;-79
2023/02/20 07:24:19;;;;;;;16.25;7.88;;;;;;;2.12;71.19;98909.16;4969176;28;20033;-85
2023/02/20 07:26:44;;;;;;;13.38;7.00;;;;;;;2.16;70.96;98897.63;4971377;28;20057;-80
2023/02/20 07:29:12;;;;;;;12.73;6.82;;;;;;;2.21;70.93;98905.09;4970745;28;20061;-86
2023/02/20 07:31:38;;;;;;;11.45;6.15;;;;;;;2.27;70.96;98906.84;4971779;28;20037;-86
2023/02/20 07:34:03;;;;;;;13.23;6.97;;;;;;;2.30;70.89;98898.25;4970364;28;20427;-80
2023/02/20 07:36:28;;;;;;;10.77;6.72;;;;;;;2.37;70.97;98896.28;4969980;28;20027;-85
2023/02/20 07:38:55;;;;;;;10.82;6.60;;;;;;;2.43;71.08;98899.13;4971162;28;20052;-80
2023/02/20 07:41:20;;;;;;;16.13;7.10;;;;;;;2.47;70.94;98897.59;4972788;28;20461;-80
2023/02/20 07:43:46;;;;;;;20.05;11.15;;;;;;;2.52;70.82;98887.72;4972620;28;20113;-79
2023/02/20 07:46:11;;;;;;;17.52;8.57;;;;;;;2.59;70.46;98892.22;4971834;28;20023;-82
2023/02/20 07:48:37;;;;;;;19.58;9.68;;;;;;;2.63;70.30;98885.28;4970932;28;20051;-86
2023/02/20 07:51:02;;;;;;;23.08;11.00;;;;;;;2.71;70.65;98875.97;4968007;28;20432;-83
2023/02/20 07:53:28;;;;;;;36.33;18.08;;;;;;;2.77;70.35;98873.16;4970249;28;20058;-83
2023/02/20 07:55:53;;;;;;;20.60;9.57;;;;;;;2.84;70.54;98873.03;4971211;28;20034;-82
2023/02/20 07:58:18;;;;;;;20.70;10.10;;;;;;;2.87;70.67;98872.56;4970752;28;20156;-82
2023/02/20 08:00:44;;;;;;;22.85;10.40;;;;;;;2.91;70.40;98857.50;4969631;28;20023;-79
2023/02/20 08:03:10;;;;;;;21.92;11.55;;;;;;;2.97;70.27;98853.00;4971940;28;20093;-84
2023/02/20 08:05:35;;;;;;;23.40;11.25;;;;;;;2.98;69.74;98847.38;4969967;28;20468;-82
2023/02/20 08:08:01;;;;;;;20.27;10.13;;;;;;;2.95;70.16;98833.44;4970876;28;20467;-83
2023/02/20 08:10:27;;;;;;;21.08;12.15;;;;;;;2.96;69.49;98835.09;4971418;28;20561;-85
2023/02/20 08:12:54;;;;;;;20.77;10.02;;;;;;;2.91;69.66;98846.66;4970970;28;20467;-79
2023/02/20 08:15:21;;;;;;;16.70;9.55;;;;;;;2.87;69.58;98837.34;4968953;28;20324;-78
2023/02/20 08:17:47;;;;;;;22.38;10.27;;;;;;;2.86;69.89;98843.84;4969684;28;20043;-79
2023/02/20 08:20:17;;;;;;;19.40;11.18;;;;;;;2.89;70.14;98837.94;4974606;28;20031;-83
2023/02/20 08:22:43;;;;;;;;;;;;;;;2.93;70.46;98844.53;4971407;28;20029;-78
2023/02/20 08:25:08;;;;;;;15.48;8.90;;;;;;;2.96;69.48;98843.22;4971730;28;19913;-80
2023/02/20 08:27:40;;;;;;;17.40;9.32;;;;;;;2.95;69.42;98841.56;4971650;28;20495;-80
2023/02/20 08:30:06;;;;;;;17.95;9.43;;;;;;;3.02;70.62;98836.88;4971647;28;20049;-81
2023/02/20 08:32:31;;;;;;;19.05;10.68;;;;;;;3.06;69.82;98832.63;4971035;28;20071;-81
2023/02/20 08:34:56;;;;;;;15.43;9.13;;;;;;;3.16;70.39;98831.19;4970216;28;20053;-79
2023/02/20 08:37:22;;;;;;;23.98;12.73;;;;;;;3.23;69.62;98829.19;4968431;28;20400;-78
2023/02/20 08:39:47;;;;;;;16.63;9.35;;;;;;;3.33;70.84;98817.72;4966385;28;20053;-81
2023/02/20 08:42:16;;;;;;;19.40;10.05;;;;;;;3.42;70.18;98819.00;4970046;28;20038;-84
2023/02/20 08:44:42;;;;;;;18.85;10.90;;;;;;;3.49;70.49;98811.53;4968659;28;20022;-79
2023/02/20 08:47:07;;;;;;;15.43;9.50;;;;;;;3.61;70.76;98810.66;4969270;28;20046;-80
2023/02/20 08:49:33;;;;;;;13.02;7.47;;;;;;;3.73;70.80;98787.84;4970680;28;20026;-80
2023/02/20 08:51:58;;;;;;;19.58;9.90;;;;;;;3.86;69.91;98791.34;4970988;28;20038;-78
2023/02/20 08:54:23;;;;;;;15.77;7.32;;;;;;;3.96;70.20;98777.13;4971939;28;20027;-83
2023/02/20 08:56:49;;;;;;;15.05;9.38;;;;;;;4.09;69.90;98781.41;4971178;28;20050;-80
2023/02/20 08:59:14;;;;;;;16.48;9.20;;;;;;;4.17;70.00;98772.84;4970979;28;20154;-81
2023/02/20 09:01:41;;;;;;;13.07;7.00;;;;;;;4.25;69.94;98766.22;4970055;28;20105;-83
2023/02/20 09:04:09;;;;;;;32.72;15.38;;;;;;;4.34;70.76;98767.41;4968671;28;20038;-82
2023/02/20 09:06:35;;;;;;;19.48;9.15;;;;;;;4.46;69.73;98764.63;4971056;28;20396;-79
2023/02/20 09:09:01;;;;;;;10.95;6.65;;;;;;;4.55;70.35;98749.53;4971155;28;20065;-79
2023/02/20 09:11:26;;;;;;;15.68;8.73;;;;;;;4.65;69.61;98740.75;4970259;28;20046;-78
2023/02/20 09:13:52;;;;;;;13.00;6.70;;;;;;;4.73;69.46;98747.63;4969459;28;20022;-77
2023/02/20 09:16:20;;;;;;;9.93;6.05;;;;;;;4.78;69.72;98750.41;4970916;28;20031;-80
2023/02/20 09:18:46;;;;;;;8.40;5.43;;;;;;;4.77;69.33;98730.56;4976291;28;20053;-80
2023/02/20 09:21:13;;;;;;;9.10;5.22;;;;;;;4.75;68.71;98738.13;4969109;28;20468;-80
2023/02/20 09:23:39;;;;;;;10.00;5.63;;;;;;;4.73;68.94;98740.28;4969865;28;20368;-80
2023/02/20 09:26:04;;;;;;;11.10;6.00;;;;;;;4.71;68.97;98728.03;4967963;28;20126;-80
2023/02/20 09:28:30;;;;;;;9.73;5.35;;;;;;;4.68;68.83;98737.53;4969013;28;20049;-80
2023/02/20 09:30:56;;;;;;;12.18;6.88;;;;;;;4.67;68.21;98729.59;4967981;28;20105;-81
2023/02/20 09:33:22;;;;;;;12.00;6.93;;;;;;;4.64;68.23;98730.09;4968719;28;20125;-77
2023/02/20 09:35:51;;;;;;;12.75;7.10;;;;;;;4.65;68.47;98718.16;4970554;28;20033;-75
2023/02/20 09:38:17;;;;;;;9.80;5.75;;;;;;;4.65;68.71;98716.28;4969520;28;20125;-77
2023/02/20 09:40:48;;;;;;;8.30;5.50;;;;;;;4.66;68.53;98717.94;4968837;28;20047;-76
2023/02/20 09:43:34;;;;;;;12.55;6.00;;;;;;;4.65;69.10;98705.41;4970546;28;20035;-76
2023/02/20 09:46:16;;;;;;;8.65;5.05;;;;;;;4.67;68.69;98707.88;4970685;28;20034;-77
2023/02/20 09:48:53;;;;;;;9.38;4.72;;;;;;;4.68;68.31;98709.50;4968513;28;20034;-76
2023/02/20 09:51:22;;;;;;;8.60;5.30;;;;;;;4.71;69.04;98704.38;4970724;28;20045;-76
2023/02/20 09:54:01;;;;;;;8.85;5.78;;;;;;;4.78;69.14;98696.06;4986561;28;20055;-75
2023/02/20 09:56:31;;;;;;;8.15;4.78;;;;;;;4.87;69.18;98697.28;4970722;28;20499;-76
2023/02/20 09:59:05;;;;;;;9.43;5.20;;;;;;;4.91;68.35;98684.81;4970283;28;20075;-78
2023/02/20 10:01:33;;;;;;;8.80;4.85;;;;;;;4.92;68.67;98680.19;4984671;28;20041;-77
2023/02/20 10:04:03;;;;;;;8.77;5.40;;;;;;;4.91;68.60;98684.81;4969233;28;20528;-78
2023/02/20 10:06:33;;;;;;;12.48;4.40;;;;;;;4.93;68.71;98690.00;4970282;28;20478;-77
2023/02/20 10:09:01;;;;;;;8.60;5.28;;;;;;;4.97;69.13;98690.31;4969626;28;20058;-77
2023/02/20 10:11:38;;;;;;;9.57;5.00;;;;;;;5.00;69.04;98693.34;4966443;28;20039;-79
2023/02/20 10:14:39;;;;;;;10.50;5.38;;;;;;;5.06;68.91;98686.91;4970027;28;20062;-78
2023/02/20 10:17:23;;;;;;;11.57;6.35;;;;;;;5.12;68.73;98674.19;4967361;28;20105;-78
2023/02/20 10:19:54;;;;;;;10.40;5.97;;;;;;;5.16;68.46;98660.88;4971154;28;20019;-79
2023/02/20 10:22:34;;;;;;;9.70;4.65;;;;;;;5.19;68.51;98674.81;4971426;28;20039;-79
2023/02/20 10:25:13;;;;;;;7.60;4.73;;;;;;;5.21;68.26;98658.22;4971315;28;20391;-78
2023/02/20 10:27:55;;;;;;;9.73;5.43;;;;;;;5.23;68.48;98631.59;4971079;28;20274;-77
2023/02/20 10:30:32;;;;;;;9.30;5.47;;;;;;;5.28;68.71;98630.84;4971688;28;20039;-78
2023/02/20 10:33:15;;;;;;;8.88;5.45;;;;;;;5.36;68.08;98636.63;4975396;28;20109;-76
2023/02/20 10:36:23;;;;;;;14.20;9.10;;;;;;;5.41;68.41;98643.19;4973364;28;20023;-77
2023/02/20 10:38:54;;;;;;;27.25;15.50;;;;;;;5.45;68.45;98622.56;4975092;28;20034;-76
2023/02/20 10:41:30;;;;;;;14.68;8.25;;;;;;;5.55;68.60;98624.53;4975496;28;20035;-82
2023/02/20 10:44:18;;;;;;;10.82;7.80;;;;;;;5.58;68.38;98621.31;4972670;28;20050;-77
2023/02/20 10:47:09;;;;;;;8.90;6.00;;;;;;;5.62;68.21;98609.63;4975033;28;20101;-81
2023/02/20 10:49:39;;;;;;;11.90;8.88;;;;;;;5.65;68.10;98586.53;4975334;28;20023;-79
2023/02/20 10:52:09;;;;;;;13.50;7.03;;;;;;;5.68;68.18;98602.34;4975250;28;20038;-79
2023/02/20 10:55:14;;;;;;;9.90;6.30;;;;;;;5.72;68.45;98583.59;4975363;28;20150;-79
2023/02/20 10:57:57;;;;;;;11.48;7.68;;;;;;;5.73;68.21;98564.25;4973190;28;20118;-82
2023/02/20 11:00:44;;;;;;;10.63;7.13;;;;;;;5.79;68.30;98559.69;4972245;28;20519;-79
2023/02/20 11:03:21;;;;;;;9.02;6.35;;;;;;;5.88;68.46;98570.91;4974642;28;20045;-83
2023/02/20 11:05:52;;;;;;;8.77;5.53;;;;;;;5.97;68.06;98561.16;4975223;28;20022;-80
2023/02/20 11:08:19;;;;;;;8.43;6.00;;;;;;;6.04;68.29;98561.78;4974755;28;20027;-80
2023/02/20 11:10:47;;;;;;;11.80;6.53;;;;;;;6.10;68.57;98541.66;4974601;28;20030;-84
2023/02/20 11:13:16;;;;;;;11.45;5.93;;;;;;;6.22;68.26;98533.28;4974468;28;20030;-78
2023/02/20 11:15:43;;;;;;;12.02;7.10;;;;;;;6.28;67.91;98530.59;4974506;28;20023;-80
2023/02/20 11:18:24;;;;;;;13.40;6.35;;;;;;;6.35;68.12;98526.50;4974863;28;20089;-77
2023/02/20 11:20:50;;;;;;;12.65;7.43;;;;;;;6.42;67.91;98514.56;4988823;28;20035;-78
2023/02/20 11:23:45;;;;;;;10.95;6.63;;;;;;;6.43;67.88;98510.75;4974208;28;20029;-78
2023/02/20 11:26:20;;;;;;;11.35;6.70;;;;;;;6.44;68.24;98518.63;4973935;28;20045;-78
2023/02/20 11:29:04;;;;;;;11.82;7.35;;;;;;;6.46;68.01;98504.75;4974618;28;20045;-79
2023/02/20 11:31:30;;;;;;;12.30;6.55;;;;;;;6.47;68.00;98498.22;4974383;28;20472;-78
2023/02/20 11:33:56;;;;;;;12.32;7.75;;;;;;;6.50;68.43;98481.34;4974521;28;20084;-79
2023/02/20 11:36:25;;;;;;;11.35;7.25;;;;;;;6.55;68.22;98465.81;4974711;28;20066;-78
2023/02/20 11:39:12;;;;;;;13.27;8.15;;;;;;;6.51;68.41;98459.25;4973967;28;20058;-78
2023/02/20 11:41:38;;;;;;;10.93;7.80;;;;;;;6.51;68.15;98456.53;4974421;28;20105;-78
2023/02/20 11:44:08;;;;;;;11.60;7.90;;;;;;;6.47;68.45;98452.72;4974206;28;20109;-77
2023/02/20 11:46:34;;;;;;;;;;;;;;;6.51;68.21;98445.63;4975103;28;20041;-79
2023/02/20 11:49:06;;;;;;;12.35;7.35;;;;;;;6.54;68.09;98464.19;4972717;28;20442;-79
2023/02/20 11:51:40;;;;;;;13.80;8.38;;;;;;;6.55;68.48;98440.47;4972497;28;20043;-78
2023/02/20 11:54:28;;;;;;;12.48;7.90;;;;;;;6.58;68.79;98400.97;4972134;28;20050;-77
2023/02/20 11:57:01;;;;;;;14.73;8.48;;;;;;;6.65;68.82;98418.69;4972292;28;20125;-78
2023/02/20 11:59:33;;;;;;;12.45;7.63;;;;;;;6.75;69.08;98412.41;4972308;28;20031;-79
2023/02/20 12:02:16;;;;;;;11.75;7.65;;;;;;;6.83;68.83;98403.69;4972462;28;20031;-79
2023/02/20 12:04:43;;;;;;;15.52;8.60;;;;;;;6.86;68.68;98391.44;4973623;28;20066;-78